createdAt,value
2018-03-27T00:03:37.524Z,9.70
2018-03-27T00:06:05.632Z,9.40
2018-03-27T00:08:32.990Z,9.00
2018-03-27T00:11:00.736Z,8.70
2018-03-27T00:13:28.097Z,9.00
2018-03-27T00:15:55.492Z,9.20
2018-03-27T00:20:51.088Z,9.40
2018-03-27T00:23:19.169Z,9.60
2018-03-27T00:25:47.280Z,9.70
2018-03-27T00:28:26.796Z,9.90
2018-03-27T00:31:12.529Z,10.00
2018-03-27T00:39:19.580Z,10.00
2018-03-27T00:47:22.337Z,9.90
2018-03-27T00:49:50.400Z,10.10
2018-03-27T00:54:46.908Z,10.20
2018-03-27T00:57:14.260Z,10.30
2018-03-27T00:59:41.604Z,10.30
2018-03-27T01:04:37.282Z,10.30
2018-03-27T01:09:32.924Z,10.30
2018-03-27T01:12:00.284Z,10.10
2018-03-27T01:14:28.417Z,10.20
2018-03-27T01:16:55.744Z,10.10
2018-03-27T01:19:23.852Z,10.20
2018-03-27T01:21:51.152Z,10.20
2018-03-27T01:24:19.385Z,10.10
2018-03-27T01:26:46.713Z,10.10
2018-03-27T01:29:14.068Z,10.20
2018-03-27T01:31:41.441Z,10.20
2018-03-27T01:34:08.800Z,10.40
2018-03-27T01:36:36.226Z,10.30
2018-03-27T01:39:04.302Z,10.10
2018-03-27T01:41:31.704Z,10.10
2018-03-27T01:43:59.016Z,10.10
2018-03-27T01:46:27.105Z,10.20
2018-03-27T01:48:54.511Z,10.00
2018-03-27T01:56:19.514Z,10.00
2018-03-27T02:01:15.952Z,10.10
2018-03-27T02:06:11.769Z,10.20
2018-03-27T02:11:14.528Z,10.40
2018-03-27T02:13:47.961Z,10.40
2018-03-27T02:16:22.009Z,10.40
2018-03-27T02:18:55.651Z,10.30
2018-03-27T02:21:24.585Z,10.30
2018-03-27T02:26:20.228Z,10.30
2018-03-27T02:31:16.678Z,9.70
2018-03-27T02:38:40.728Z,9.00
2018-03-27T02:41:08.224Z,9.10
2018-03-27T02:48:32.381Z,10.20
2018-03-27T02:50:59.725Z,10.40
2018-03-27T02:53:27.072Z,10.50
2018-03-27T03:00:50.941Z,9.80
2018-03-27T03:03:18.396Z,9.60
2018-03-27T03:05:46.632Z,9.80
2018-03-27T03:08:13.956Z,9.50
2018-03-27T03:15:37.976Z,9.30
2018-03-27T03:20:34.452Z,9.20
2018-03-27T03:23:01.816Z,9.30
2018-03-27T03:27:57.476Z,9.30
2018-03-27T03:30:24.840Z,9.50
2018-03-27T03:35:20.452Z,9.40
2018-03-27T03:37:47.807Z,8.80
2018-03-27T03:40:15.887Z,8.60
2018-03-27T03:42:43.251Z,8.70
2018-03-27T03:47:38.912Z,8.20
2018-03-27T03:50:07.024Z,7.90
2018-03-27T03:52:34.599Z,7.90
2018-03-27T03:57:30.448Z,7.60
2018-03-27T03:59:57.821Z,7.60
2018-03-27T04:07:22.449Z,7.90
2018-03-27T04:09:50.579Z,7.80
2018-03-27T04:12:17.933Z,7.80
2018-03-27T04:14:46.352Z,7.90
2018-03-27T04:17:14.477Z,7.90
2018-03-27T04:19:42.992Z,7.60
2018-03-27T04:22:11.159Z,7.80
2018-03-27T04:24:38.760Z,7.80
2018-03-27T04:27:06.115Z,8.20
2018-03-27T04:29:33.474Z,8.20
2018-03-27T04:32:01.665Z,8.70
2018-03-27T04:34:29.060Z,8.90
2018-03-27T04:36:56.500Z,9.00
2018-03-27T04:41:52.132Z,8.30
2018-03-27T04:44:19.499Z,8.00
2018-03-27T04:46:46.861Z,8.00
2018-03-27T04:49:14.352Z,8.00
2018-03-27T04:51:42.488Z,8.30
2018-03-27T04:56:39.023Z,9.10
2018-03-27T04:59:06.541Z,9.20
2018-03-27T05:01:34.240Z,9.10
2018-03-27T05:04:01.604Z,8.90
2018-03-27T05:06:29.006Z,8.40
2018-03-27T05:08:56.373Z,8.50
2018-03-27T05:11:23.713Z,8.70
2018-03-27T05:13:51.799Z,8.50
2018-03-27T05:21:15.781Z,8.80
2018-03-27T05:23:43.088Z,8.80
2018-03-27T05:26:11.227Z,8.50
2018-03-27T05:28:38.624Z,8.90
2018-03-27T05:31:05.971Z,9.10
2018-03-27T05:33:33.538Z,9.30
2018-03-27T05:36:01.667Z,9.60
2018-03-27T05:38:29.028Z,9.20
2018-03-27T05:40:57.177Z,8.70
2018-03-27T05:43:24.527Z,8.90
2018-03-27T05:48:20.212Z,9.30
2018-03-27T05:50:48.359Z,9.20
2018-03-27T05:53:16.490Z,9.50
2018-03-27T05:58:12.160Z,9.90
2018-03-27T06:03:07.807Z,10.20
2018-03-27T06:05:35.968Z,10.10
2018-03-27T06:15:28.287Z,10.90
2018-03-27T06:17:55.682Z,11.00
2018-03-27T06:20:23.149Z,10.90
2018-03-27T06:22:51.261Z,10.80
2018-03-27T06:25:18.669Z,10.60
2018-03-27T06:30:14.308Z,10.50
2018-03-27T06:32:41.683Z,10.60
2018-03-27T06:35:09.780Z,10.70
2018-03-27T06:37:37.160Z,10.70
2018-03-27T06:40:04.520Z,11.00
2018-03-27T06:42:32.688Z,11.00
2018-03-27T06:49:57.653Z,11.20
2018-03-27T06:52:25.017Z,11.40
2018-03-27T06:54:53.121Z,11.50
2018-03-27T06:57:20.497Z,11.70
2018-03-27T07:02:16.923Z,11.90
2018-03-27T07:04:44.284Z,11.70
2018-03-27T07:07:11.730Z,11.40
2018-03-27T07:12:07.339Z,11.20
2018-03-27T07:14:35.287Z,11.30
2018-03-27T07:17:03.408Z,11.40
2018-03-27T07:19:31.456Z,11.70
2018-03-27T07:21:58.829Z,12.20
2018-03-27T07:26:54.978Z,13.00
2018-03-27T07:29:22.385Z,13.20
2018-03-27T07:31:49.723Z,13.30
2018-03-27T07:34:17.117Z,13.30
2018-03-27T07:36:44.463Z,13.30
2018-03-27T07:39:11.864Z,13.50
2018-03-27T07:44:07.536Z,13.40
2018-03-27T07:46:35.648Z,13.10
2018-03-27T07:49:03.004Z,13.10
2018-03-27T07:53:59.450Z,13.40
2018-03-27T07:56:26.900Z,13.20
2018-03-27T08:03:50.980Z,14.20
2018-03-27T08:06:18.347Z,14.30
2018-03-27T08:11:14.007Z,14.50
2018-03-27T08:16:10.556Z,14.90
2018-03-27T08:21:06.298Z,15.20
2018-03-27T08:23:34.600Z,15.40
2018-03-27T08:26:01.930Z,15.20
2018-03-27T08:30:57.641Z,14.60
2018-03-27T08:35:53.368Z,14.80
2018-03-27T08:38:20.780Z,14.50
2018-03-27T08:40:50.953Z,14.40
2018-03-27T08:43:18.589Z,15.00
2018-03-27T08:45:45.953Z,15.40
2018-03-27T08:50:41.639Z,16.10
2018-03-27T08:53:09.474Z,16.00
2018-03-27T08:55:36.869Z,15.20
2018-03-27T09:00:32.539Z,16.20
2018-03-27T09:02:59.897Z,17.50
2018-03-27T09:08:02.720Z,17.50
2018-03-27T09:17:55.756Z,14.30
2018-03-27T09:20:23.088Z,14.90
2018-03-27T09:22:51.183Z,16.10
2018-03-27T09:25:18.624Z,16.00
2018-03-27T09:27:47.133Z,14.00
2018-03-27T09:30:14.540Z,13.60
2018-03-27T09:32:42.784Z,13.90
2018-03-27T09:35:10.118Z,15.90
2018-03-27T09:40:05.932Z,18.40
2018-03-27T09:42:34.013Z,19.80
2018-03-27T09:45:01.420Z,21.60
2018-03-27T09:47:28.764Z,22.90
2018-03-27T09:49:56.151Z,23.80
2018-03-27T09:52:24.232Z,24.40
2018-03-27T09:57:20.688Z,25.60
2018-03-27T09:59:48.030Z,25.80
2018-03-27T10:02:17.084Z,26.30
2018-03-27T10:07:12.758Z,22.60
2018-03-27T10:09:40.205Z,23.70
2018-03-27T10:12:08.352Z,23.50
2018-03-27T10:14:35.754Z,21.00
2018-03-27T10:17:03.133Z,19.40
2018-03-27T10:19:31.225Z,19.80
2018-03-27T10:21:58.609Z,20.50
2018-03-27T10:24:33.002Z,21.00
2018-03-27T10:29:28.703Z,21.40
2018-03-27T10:31:56.852Z,22.30
2018-03-27T10:34:24.225Z,20.00
2018-03-27T10:36:52.388Z,18.10
2018-03-27T10:41:48.789Z,15.20
2018-03-27T10:46:45.223Z,15.40
2018-03-27T10:51:41.636Z,14.10
2018-03-27T10:54:09.259Z,15.50
2018-03-27T10:56:37.367Z,16.50
2018-03-27T10:59:04.778Z,17.40
2018-03-27T11:01:32.157Z,17.60
2018-03-27T11:03:59.524Z,18.00
2018-03-27T11:08:55.911Z,18.40
2018-03-27T11:11:23.303Z,17.80
2018-03-27T11:13:50.732Z,16.60
2018-03-27T11:16:18.091Z,16.00
2018-03-27T11:18:46.028Z,15.00
2018-03-27T11:21:14.483Z,14.10
2018-03-27T11:23:41.824Z,14.10
2018-03-27T11:26:09.976Z,14.00
2018-03-27T11:28:37.317Z,14.10
2018-03-27T11:31:04.662Z,13.70
2018-03-27T11:36:00.382Z,12.80
2018-03-27T11:40:56.860Z,13.30
2018-03-27T11:43:24.229Z,12.50
2018-03-27T11:45:52.349Z,12.20
2018-03-27T11:48:19.722Z,13.90
2018-03-27T11:53:15.377Z,15.10
2018-03-27T11:58:11.105Z,13.90
2018-03-27T12:00:38.588Z,14.20
2018-03-27T12:03:06.876Z,14.50
2018-03-27T12:05:34.348Z,15.10
2018-03-27T12:08:02.689Z,16.70
2018-03-27T12:10:30.932Z,17.90
2018-03-27T12:12:58.321Z,17.30
2018-03-27T12:15:25.737Z,18.00
2018-03-27T12:17:53.813Z,19.30
2018-03-27T12:20:21.199Z,20.00
2018-03-27T12:25:17.834Z,19.00
2018-03-27T12:27:45.195Z,19.70
2018-03-27T12:30:12.584Z,21.20
2018-03-27T12:32:40.041Z,22.20
2018-03-27T12:35:07.389Z,21.80
2018-03-27T12:37:34.885Z,21.80
2018-03-27T12:40:02.244Z,23.00
2018-03-27T12:42:29.722Z,24.10
2018-03-27T12:44:57.102Z,22.10
2018-03-27T12:47:25.245Z,20.60
2018-03-27T12:49:52.676Z,22.10
2018-03-27T12:52:20.097Z,21.80
2018-03-27T12:54:47.532Z,22.10
2018-03-27T12:59:44.064Z,18.20
2018-03-27T13:02:11.578Z,18.30
2018-03-27T13:04:39.009Z,19.50
2018-03-27T13:07:06.468Z,20.00
2018-03-27T13:09:33.923Z,23.10
2018-03-27T13:14:30.588Z,22.60
2018-03-27T13:16:57.967Z,22.20
2018-03-27T13:19:26.238Z,22.20
2018-03-27T13:21:54.412Z,20.80
2018-03-27T13:24:21.805Z,20.70
2018-03-27T13:26:49.202Z,22.80
2018-03-27T13:29:17.370Z,22.60
2018-03-27T13:31:44.767Z,22.10
2018-03-27T13:34:12.885Z,20.60
2018-03-27T13:36:40.251Z,18.90
2018-03-27T13:41:36.707Z,16.50
2018-03-27T13:44:04.102Z,18.20
2018-03-27T13:46:31.539Z,18.70
2018-03-27T13:48:59.641Z,17.60
2018-03-27T13:53:56.309Z,16.10
2018-03-27T14:01:20.444Z,18.80
2018-03-27T14:03:48.604Z,18.10
2018-03-27T14:06:16.333Z,18.90
2018-03-27T14:08:43.793Z,20.50
2018-03-27T14:11:11.197Z,21.20
2018-03-27T14:13:38.863Z,18.90
2018-03-27T14:16:06.309Z,17.40
2018-03-27T14:18:34.405Z,18.20
2018-03-27T14:21:01.804Z,17.80
2018-03-27T14:23:29.902Z,17.90
2018-03-27T14:28:25.613Z,18.70
2018-03-27T14:33:22.401Z,16.10
2018-03-27T14:35:50.602Z,14.90
2018-03-27T14:40:46.334Z,15.30
2018-03-27T14:43:13.692Z,15.30
2018-03-27T14:45:41.805Z,14.60
2018-03-27T14:48:09.219Z,14.20
2018-03-27T14:53:05.022Z,15.20
2018-03-27T14:55:32.355Z,16.40
2018-03-27T15:00:28.019Z,18.90
2018-03-27T15:02:56.125Z,19.00
2018-03-27T15:05:23.490Z,17.40
2018-03-27T15:07:50.841Z,16.40
2018-03-27T15:10:18.249Z,15.60
2018-03-27T15:12:45.610Z,14.60
2018-03-27T15:15:13.789Z,14.30
2018-03-27T15:17:41.170Z,14.40
2018-03-27T15:20:09.285Z,13.50
2018-03-27T15:25:05.678Z,13.20
2018-03-27T15:27:33.077Z,13.00
2018-03-27T15:30:01.229Z,13.20
2018-03-27T15:32:29.362Z,13.90
2018-03-27T15:37:25.723Z,15.30
2018-03-27T15:39:54.017Z,15.40
2018-03-27T15:42:21.422Z,15.00
2018-03-27T15:44:48.769Z,14.50
2018-03-27T15:49:45.224Z,14.30
2018-03-27T15:52:12.637Z,13.80
2018-03-27T15:54:41.061Z,13.40
2018-03-27T15:57:08.612Z,13.80
2018-03-27T15:59:36.761Z,13.90
2018-03-27T16:04:32.470Z,13.90
2018-03-27T16:06:59.909Z,14.10
2018-03-27T16:09:27.294Z,14.20
2018-03-27T16:11:54.769Z,14.10
2018-03-27T16:16:50.472Z,14.00
2018-03-27T16:19:17.830Z,13.70
2018-03-27T16:26:42.726Z,12.80
2018-03-27T16:29:10.177Z,12.90
2018-03-27T16:31:37.550Z,13.00
2018-03-27T16:34:04.979Z,13.10
2018-03-27T16:36:33.144Z,13.50
2018-03-27T16:41:29.288Z,13.10
2018-03-27T16:43:57.688Z,13.20
2018-03-27T16:46:25.092Z,13.30
2018-03-27T16:48:53.270Z,13.10
2018-03-27T16:53:48.998Z,13.20
2018-03-27T16:56:17.084Z,13.30
2018-03-27T17:01:12.890Z,13.50
2018-03-27T17:06:08.734Z,12.80
2018-03-27T17:08:36.098Z,12.60
2018-03-27T17:11:03.467Z,12.50
2018-03-27T17:16:00.160Z,13.90
2018-03-27T17:18:28.480Z,13.20
2018-03-27T17:20:55.902Z,12.70
2018-03-27T17:23:24.053Z,12.50
2018-03-27T17:25:51.522Z,12.10
2018-03-27T17:28:19.058Z,12.30
2018-03-27T17:33:14.717Z,12.60
2018-03-27T17:35:42.226Z,12.60
2018-03-27T17:40:38.026Z,12.80
2018-03-27T17:43:05.618Z,12.60
2018-03-27T17:48:01.355Z,12.60
2018-03-27T17:50:29.521Z,12.70
2018-03-27T17:52:56.949Z,12.80
2018-03-27T17:55:24.453Z,13.00
2018-03-27T17:57:51.842Z,12.90
2018-03-27T18:07:44.258Z,12.70
2018-03-27T18:10:11.678Z,12.50
2018-03-27T18:12:39.084Z,12.70
2018-03-27T18:15:07.298Z,12.50
2018-03-27T18:17:34.760Z,12.00
2018-03-27T18:20:02.171Z,12.00
2018-03-27T18:22:29.668Z,12.10
2018-03-27T18:24:57.796Z,12.20
2018-03-27T18:32:22.791Z,12.60
2018-03-27T18:34:50.274Z,12.70
2018-03-27T18:42:15.250Z,12.10
2018-03-27T18:44:42.708Z,11.80
2018-03-27T18:47:10.927Z,11.70
2018-03-27T18:49:39.185Z,11.90
2018-03-27T18:52:06.727Z,12.20
2018-03-27T18:54:34.206Z,12.10
2018-03-27T18:57:01.594Z,12.20
2018-03-27T18:59:29.005Z,12.40
2018-03-27T19:01:56.404Z,12.40
2018-03-27T19:04:24.620Z,12.40
2018-03-27T19:06:52.013Z,12.30
2018-03-27T19:09:38.652Z,12.20
2018-03-27T19:12:20.730Z,12.20
2018-03-27T19:14:53.999Z,12.10
2018-03-27T19:17:21.754Z,12.10
2018-03-27T19:19:50.171Z,12.20
2018-03-27T19:22:17.598Z,12.40
2018-03-27T19:24:47.505Z,12.50
2018-03-27T19:27:22.164Z,12.40
2018-03-27T19:29:52.361Z,12.60
2018-03-27T19:32:20.878Z,12.60
2018-03-27T19:34:49.459Z,12.30
2018-03-27T19:37:17.130Z,12.20
2018-03-27T19:39:48.396Z,12.00
2018-03-27T19:42:19.764Z,11.80
2018-03-27T19:44:47.156Z,11.60
2018-03-27T19:47:14.904Z,11.60
2018-03-27T19:49:42.304Z,11.60
2018-03-27T19:52:09.736Z,11.60
2018-03-27T19:54:40.052Z,11.80
2018-03-27T19:57:07.498Z,11.80
2018-03-27T19:59:35.390Z,11.60
2018-03-27T20:02:03.010Z,11.60
2018-03-27T20:04:30.592Z,11.40
2018-03-27T20:06:57.953Z,11.40
2018-03-27T20:09:25.521Z,11.70
2018-03-27T20:11:53.768Z,11.60
2018-03-27T20:14:21.182Z,11.40
2018-03-27T20:16:48.668Z,11.30
2018-03-27T20:19:16.236Z,11.30
2018-03-27T20:21:43.685Z,11.30
2018-03-27T20:24:11.077Z,11.30
2018-03-27T20:26:38.637Z,11.30
2018-03-27T20:29:06.026Z,11.20
2018-03-27T20:31:33.472Z,11.40
2018-03-27T20:34:01.637Z,11.30
2018-03-27T20:36:29.130Z,11.40
2018-03-27T20:38:56.750Z,11.20
2018-03-27T20:41:24.160Z,11.20
2018-03-27T20:43:52.961Z,10.90
2018-03-27T20:46:20.453Z,10.80
2018-03-27T20:48:48.648Z,10.70
2018-03-27T20:51:16.101Z,10.60
2018-03-27T20:53:44.273Z,10.60
2018-03-27T20:56:12.659Z,10.60
2018-03-27T20:58:40.101Z,10.60
2018-03-27T21:01:08.383Z,10.70
2018-03-27T21:03:35.789Z,10.60
2018-03-27T21:06:03.964Z,10.30
2018-03-27T21:08:31.912Z,10.30
2018-03-27T21:10:59.324Z,10.30
2018-03-27T21:13:26.761Z,10.20
2018-03-27T21:15:55.006Z,10.10
2018-03-27T21:18:22.437Z,10.20
2018-03-27T21:20:49.883Z,10.10
2018-03-27T21:23:17.278Z,10.10
2018-03-27T21:25:44.795Z,10.00
2018-03-27T21:28:12.189Z,10.10
2018-03-27T21:30:39.720Z,10.30
2018-03-27T21:33:07.163Z,10.30
2018-03-27T21:35:35.330Z,10.20
2018-03-27T21:38:03.551Z,10.10
2018-03-27T21:40:31.104Z,10.40
2018-03-27T21:42:58.539Z,10.30
2018-03-27T21:45:25.943Z,10.20
2018-03-27T21:47:59.044Z,10.10
2018-03-27T21:50:38.353Z,9.90
2018-03-27T21:53:06.581Z,9.70
2018-03-27T21:55:35.802Z,9.50
2018-03-27T21:58:04.854Z,9.50
2018-03-27T22:00:32.290Z,9.40
2018-03-27T22:02:59.717Z,9.40
2018-03-27T22:05:27.481Z,9.50
2018-03-27T22:07:54.892Z,9.50
2018-03-27T22:10:24.156Z,9.40
2018-03-27T22:12:51.564Z,9.60
2018-03-27T22:15:19.019Z,9.60
2018-03-27T22:17:47.278Z,9.50
2018-03-27T22:20:16.591Z,9.30
2018-03-27T22:22:44.725Z,9.30
2018-03-27T22:25:13.848Z,9.40
2018-03-27T22:27:44.577Z,9.60
2018-03-27T22:30:11.982Z,9.60
2018-03-27T22:32:42.129Z,9.40
2018-03-27T22:35:10.472Z,9.30
2018-03-27T22:37:37.890Z,9.40
2018-03-27T22:40:06.277Z,9.60
2018-03-27T22:45:02.279Z,9.70
2018-03-27T22:47:33.176Z,9.90
2018-03-27T22:50:00.568Z,9.90
2018-03-27T22:52:27.975Z,10.10
2018-03-27T22:54:55.475Z,9.90
2018-03-27T22:57:23.742Z,9.50
2018-03-27T22:59:51.157Z,9.40
2018-03-27T23:02:21.338Z,9.50
2018-03-27T23:04:48.688Z,9.50
2018-03-27T23:07:16.071Z,9.30
2018-03-27T23:09:43.717Z,9.10
2018-03-27T23:12:11.278Z,9.10
2018-03-27T23:17:06.974Z,9.10
2018-03-27T23:19:34.440Z,9.10
2018-03-27T23:22:01.820Z,9.20
2018-03-27T23:26:57.711Z,9.20
2018-03-27T23:29:25.155Z,9.00
2018-03-27T23:31:52.647Z,8.90
2018-03-27T23:34:20.005Z,8.90
2018-03-27T23:36:47.346Z,9.00
2018-03-27T23:39:14.869Z,8.90
2018-03-27T23:41:42.296Z,8.80
2018-03-27T23:44:09.629Z,8.70
2018-03-27T23:46:37.768Z,8.80
2018-03-27T23:49:05.189Z,8.90
2018-03-27T23:51:33.300Z,8.80
2018-03-27T23:54:01.468Z,8.90
2018-03-27T23:58:57.224Z,9.00
